Time;durP1;ratioP1;P1;durP2;ratioP2;P2;SDS_P1;SDS_P2;PMS_P1;PMS_P2;Temp;Humidity;BMP_temperature;BMP_pressure;BME280_temperature;BME280_humidity;BME280_pressure;Samples;Min_cycle;Max_cycle;Signal;HPM_P1;HPM_P2
2022/08/21 00:01:05;;;;;;;10.05;4.10;;;;;;;;;;4971640;28;20494;-59
2022/08/21 00:03:31;;;;;;;8.23;4.10;;;;;;;;;;4967076;28;20161;-61
2022/08/21 00:05:56;;;;;;;7.05;4.03;;;;;;;;;;4972266;28;20486;-60
2022/08/21 00:08:22;;;;;;;9.90;4.22;;;;;;;;;;4969453;28;20022;-60
2022/08/21 00:10:48;;;;;;;8.45;4.00;;;;;;;;;;4972487;28;20054;-59
2022/08/21 00:13:16;;;;;;;8.77;4.00;;;;;;;;;;4970934;28;20609;-59
2022/08/21 00:15:41;;;;;;;10.77;4.18;;;;;;;;;;4972016;28;20043;-60
2022/08/21 00:18:09;;;;;;;9.07;4.20;;;;;;;;;;4970689;28;20070;-61
2022/08/21 00:20:34;;;;;;;8.35;4.03;;;;;;;;;;4972060;28;20048;-61
2022/08/21 00:23:00;;;;;;;8.40;4.30;;;;;;;;;;4972015;28;20464;-59
2022/08/21 00:25:26;;;;;;;9.02;4.35;;;;;;;;;;4970873;28;20431;-60
2022/08/21 00:27:52;;;;;;;9.05;4.65;;;;;;;;;;4971832;28;20035;-59
2022/08/21 00:30:20;;;;;;;8.63;4.05;;;;;;;;;;4970424;28;20065;-60
2022/08/21 00:32:46;;;;;;;10.50;4.43;;;;;;;;;;4971934;28;20042;-60
2022/08/21 00:35:14;;;;;;;7.22;4.22;;;;;;;;;;4965080;28;20046;-60
2022/08/21 00:37:40;;;;;;;7.10;4.40;;;;;;;;;;4972092;28;20218;-60
2022/08/21 00:40:09;;;;;;;7.75;3.70;;;;;;;;;;4967041;28;20034;-60
2022/08/21 00:42:35;;;;;;;9.70;4.70;;;;;;;;;;4969429;28;20031;-60
2022/08/21 00:45:02;;;;;;;8.63;4.25;;;;;;;;;;4971368;28;20439;-61
2022/08/21 00:47:27;;;;;;;8.75;4.25;;;;;;;;;;4970094;28;20034;-62
2022/08/21 00:49:53;;;;;;;7.75;4.32;;;;;;;;;;4969181;28;20038;-60
2022/08/21 00:52:22;;;;;;;12.15;4.50;;;;;;;;;;4971214;28;20343;-60
2022/08/21 00:54:49;;;;;;;6.70;4.00;;;;;;;;;;4969023;28;20034;-60
2022/08/21 00:57:19;;;;;;;6.85;4.13;;;;;;;;;;4961426;28;20130;-60
2022/08/21 00:59:49;;;;;;;9.83;4.30;;;;;;;;;;4971185;28;20125;-61
2022/08/21 01:02:16;;;;;;;10.25;4.72;;;;;;;;;;4960601;28;20471;-59
2022/08/21 01:04:41;;;;;;;8.18;4.18;;;;;;;;;;4972217;28;20483;-59
2022/08/21 01:07:06;;;;;;;6.68;4.20;;;;;;;;;;4969913;28;20046;-59
2022/08/21 01:09:32;;;;;;;7.72;4.40;;;;;;;;;;4971707;28;20033;-60
2022/08/21 01:11:58;;;;;;;9.75;4.55;;;;;;;;;;4972200;28;20100;-59
2022/08/21 01:14:24;;;;;;;9.52;4.28;;;;;;;;;;4971445;28;20442;-63
2022/08/21 01:16:52;;;;;;;7.30;4.18;;;;;;;;;;4970286;28;20058;-60
2022/08/21 01:19:20;;;;;;;7.53;4.38;;;;;;;;;;4972131;28;20371;-60
2022/08/21 01:21:46;;;;;;;9.27;4.47;;;;;;;;;;4969363;28;20035;-60
2022/08/21 01:24:12;;;;;;;8.88;4.45;;;;;;;;;;4971734;28;20222;-60
2022/08/21 01:26:38;;;;;;;7.15;4.30;;;;;;;;;;4956466;28;20031;-60
2022/08/21 01:29:22;;;;;;;6.85;4.22;;;;;;;;;;4956338;28;20050;-60
2022/08/21 01:31:48;;;;;;;6.75;4.38;;;;;;;;;;4969076;28;21735;-60
2022/08/21 01:34:15;;;;;;;7.93;4.60;;;;;;;;;;4972607;28;20042;-61
2022/08/21 01:36:42;;;;;;;9.70;4.20;;;;;;;;;;4969404;28;20031;-60
2022/08/21 01:39:09;;;;;;;7.32;4.53;;;;;;;;;;4970895;28;20507;-60
2022/08/21 01:41:34;;;;;;;9.60;4.75;;;;;;;;;;4967132;28;20456;-60
2022/08/21 01:43:59;;;;;;;7.97;4.75;;;;;;;;;;4971945;28;20121;-60
2022/08/21 01:46:25;;;;;;;9.70;4.60;;;;;;;;;;4971379;28;20357;-61
2022/08/21 01:48:50;;;;;;;9.57;4.68;;;;;;;;;;4976232;28;20050;-60
2022/08/21 01:51:16;;;;;;;10.02;4.85;;;;;;;;;;4974141;28;20109;-60
2022/08/21 01:53:42;;;;;;;8.90;4.85;;;;;;;;;;4973456;28;20138;-60
2022/08/21 01:56:11;;;;;;;8.55;4.95;;;;;;;;;;4975219;28;20137;-59
2022/08/21 01:58:36;;;;;;;8.23;4.93;;;;;;;;;;4971838;28;20057;-60
2022/08/21 02:01:03;;;;;;;10.40;5.43;;;;;;;;;;4976795;28;20371;-60
2022/08/21 02:03:30;;;;;;;8.40;5.45;;;;;;;;;;4968243;28;20026;-61
2022/08/21 02:05:56;;;;;;;8.68;5.30;;;;;;;;;;4974268;28;20031;-61
2022/08/21 02:08:24;;;;;;;9.38;5.20;;;;;;;;;;4974023;28;20046;-61
2022/08/21 02:10:52;;;;;;;9.80;5.75;;;;;;;;;;4963383;28;20039;-60
2022/08/21 02:13:17;;;;;;;9.32;5.50;;;;;;;;;;4972999;28;20035;-61
2022/08/21 02:15:43;;;;;;;8.57;5.07;;;;;;;;;;4975212;28;20462;-59
2022/08/21 02:18:09;;;;;;;8.77;5.13;;;;;;;;;;4972834;28;20046;-60
2022/08/21 02:20:39;;;;;;;10.57;5.90;;;;;;;;;;4971234;28;20109;-59
2022/08/21 02:23:06;;;;;;;10.32;5.50;;;;;;;;;;4973056;28;20035;-59
2022/08/21 02:25:32;;;;;;;10.02;5.80;;;;;;;;;;4974217;28;20035;-59
2022/08/21 02:27:59;;;;;;;9.63;5.70;;;;;;;;;;4971612;28;20129;-59
2022/08/21 02:30:30;;;;;;;10.20;5.60;;;;;;;;;;4975772;28;20030;-60
2022/08/21 02:32:56;;;;;;;12.25;6.00;;;;;;;;;;4970604;28;20133;-59
2022/08/21 02:35:22;;;;;;;9.43;5.65;;;;;;;;;;4974612;28;20110;-60
2022/08/21 02:37:47;;;;;;;14.02;6.30;;;;;;;;;;4972617;28;20642;-61
2022/08/21 02:40:14;;;;;;;8.55;5.60;;;;;;;;;;4974073;28;20041;-60
2022/08/21 02:42:40;;;;;;;11.07;6.53;;;;;;;;;;4971238;28;20039;-60
2022/08/21 02:45:07;;;;;;;12.50;6.05;;;;;;;;;;4974913;28;20077;-60
2022/08/21 02:47:32;;;;;;;9.80;5.97;;;;;;;;;;4973415;28;20144;-61
2022/08/21 02:49:57;;;;;;;12.38;6.35;;;;;;;;;;4973898;28;20078;-60
2022/08/21 02:52:23;;;;;;;11.02;6.10;;;;;;;;;;4974116;28;20041;-60
2022/08/21 02:54:49;;;;;;;9.77;5.85;;;;;;;;;;4972241;28;20279;-60
2022/08/21 02:57:15;;;;;;;11.65;6.53;;;;;;;;;;4970492;28;20046;-60
2022/08/21 02:59:41;;;;;;;15.13;7.10;;;;;;;;;;4953814;28;20043;-59
2022/08/21 03:02:06;;;;;;;11.93;7.18;;;;;;;;;;4972568;28;20058;-59
2022/08/21 03:04:32;;;;;;;12.02;7.28;;;;;;;;;;4970057;28;20105;-61
2022/08/21 03:06:57;;;;;;;13.02;7.30;;;;;;;;;;4972106;28;20141;-59
2022/08/21 03:09:23;;;;;;;12.70;7.50;;;;;;;;;;4972655;28;20275;-59
2022/08/21 03:11:50;;;;;;;11.20;6.97;;;;;;;;;;4971576;28;20640;-59
2022/08/21 03:14:15;;;;;;;10.98;7.32;;;;;;;;;;4973499;28;20037;-59
2022/08/21 03:16:42;;;;;;;11.07;7.10;;;;;;;;;;4971938;28;20110;-61
2022/08/21 03:19:07;;;;;;;11.23;6.85;;;;;;;;;;4955765;28;20035;-59
2022/08/21 03:21:33;;;;;;;11.13;7.20;;;;;;;;;;4955205;28;20192;-61
2022/08/21 03:23:58;;;;;;;11.00;7.28;;;;;;;;;;4967295;28;20035;-60
2022/08/21 03:26:24;;;;;;;12.35;7.63;;;;;;;;;;4968714;28;20480;-61
2022/08/21 03:28:50;;;;;;;13.63;7.60;;;;;;;;;;4971838;28;20113;-60
2022/08/21 03:31:17;;;;;;;12.65;7.78;;;;;;;;;;4959419;28;20054;-60
2022/08/21 03:33:43;;;;;;;14.15;7.80;;;;;;;;;;4970507;28;20090;-60
2022/08/21 03:36:09;;;;;;;10.75;7.50;;;;;;;;;;4973765;28;20035;-61
2022/08/21 03:38:37;;;;;;;11.15;6.93;;;;;;;;;;4968516;28;20042;-61
2022/08/21 03:41:04;;;;;;;13.15;7.53;;;;;;;;;;4964911;28;20443;-61
2022/08/21 03:43:29;;;;;;;12.32;7.40;;;;;;;;;;4960890;28;20039;-61
2022/08/21 03:45:55;;;;;;;13.68;7.82;;;;;;;;;;4972133;28;20030;-60
2022/08/21 03:48:21;;;;;;;15.43;7.75;;;;;;;;;;4973798;28;20031;-60
2022/08/21 03:50:49;;;;;;;12.68;7.68;;;;;;;;;;4971701;28;20034;-60
2022/08/21 03:53:15;;;;;;;10.40;7.22;;;;;;;;;;4966261;28;20035;-60
2022/08/21 03:55:41;;;;;;;11.93;7.10;;;;;;;;;;4955045;28;20034;-59
2022/08/21 03:58:07;;;;;;;13.57;7.57;;;;;;;;;;4971031;28;20057;-60
2022/08/21 04:00:33;;;;;;;11.90;7.30;;;;;;;;;;4971854;28;20391;-60
2022/08/21 04:02:59;;;;;;;12.00;7.38;;;;;;;;;;4973222;28;20038;-59
2022/08/21 04:05:27;;;;;;;11.00;7.50;;;;;;;;;;4970254;28;20438;-60
2022/08/21 04:08:02;;;;;;;11.40;7.45;;;;;;;;;;4968865;28;20031;-60
2022/08/21 04:10:30;;;;;;;10.57;7.75;;;;;;;;;;4965444;28;20043;-61
2022/08/21 04:12:56;;;;;;;12.38;7.90;;;;;;;;;;4972132;28;20038;-62
2022/08/21 04:15:24;;;;;;;15.05;8.35;;;;;;;;;;4963651;28;20031;-61
2022/08/21 04:17:50;;;;;;;12.82;8.13;;;;;;;;;;4972341;28;20107;-60
2022/08/21 04:20:17;;;;;;;14.43;7.90;;;;;;;;;;4971435;28;20117;-60
2022/08/21 04:22:44;;;;;;;12.07;7.60;;;;;;;;;;4971380;28;20532;-61
2022/08/21 04:25:10;;;;;;;16.05;8.55;;;;;;;;;;4971128;28;20074;-61
2022/08/21 04:27:35;;;;;;;15.40;8.48;;;;;;;;;;4973015;28;20073;-61
2022/08/21 04:30:01;;;;;;;12.75;8.32;;;;;;;;;;4968356;28;20427;-60
2022/08/21 04:32:27;;;;;;;10.60;7.65;;;;;;;;;;4968447;28;20042;-61
2022/08/21 04:35:07;;;;;;;11.63;8.00;;;;;;;;;;4968092;28;20031;-60
2022/08/21 04:37:33;;;;;;;10.80;7.72;;;;;;;;;;4973424;28;20379;-61
2022/08/21 04:39:59;;;;;;;13.90;8.07;;;;;;;;;;4970549;28;20034;-61
2022/08/21 04:42:26;;;;;;;12.48;7.85;;;;;;;;;;4967763;28;20034;-61
2022/08/21 04:44:52;;;;;;;12.00;8.35;;;;;;;;;;4967860;28;20054;-61
2022/08/21 04:47:18;;;;;;;11.77;8.25;;;;;;;;;;4967892;28;20372;-60
2022/08/21 04:49:44;;;;;;;15.63;8.75;;;;;;;;;;4971692;28;20039;-60
2022/08/21 04:52:10;;;;;;;14.40;8.80;;;;;;;;;;4970409;28;20177;-61
2022/08/21 04:54:36;;;;;;;14.70;8.73;;;;;;;;;;4971588;28;20135;-60
2022/08/21 04:57:06;;;;;;;12.88;7.85;;;;;;;;;;4968359;28;20150;-60
2022/08/21 04:59:44;;;;;;;12.55;7.68;;;;;;;;;;4968043;28;20468;-60
2022/08/21 05:02:10;;;;;;;12.25;7.75;;;;;;;;;;4968501;28;20058;-60
2022/08/21 05:04:39;;;;;;;13.73;7.78;;;;;;;;;;4968319;28;20472;-62
2022/08/21 05:07:07;;;;;;;15.07;8.10;;;;;;;;;;4970164;28;20045;-61
2022/08/21 05:09:33;;;;;;;12.18;8.00;;;;;;;;;;4968818;28;20034;-60
2022/08/21 05:12:01;;;;;;;12.88;7.97;;;;;;;;;;4972501;28;20035;-59
2022/08/21 05:14:27;;;;;;;11.82;7.68;;;;;;;;;;4967764;28;20431;-59
2022/08/21 05:16:52;;;;;;;14.07;7.97;;;;;;;;;;4970392;28;20039;-60
2022/08/21 05:19:18;;;;;;;14.80;8.35;;;;;;;;;;4971657;28;20472;-60
2022/08/21 05:21:45;;;;;;;13.77;7.93;;;;;;;;;;4971760;28;20043;-60
2022/08/21 05:24:11;;;;;;;14.18;8.20;;;;;;;;;;4969904;28;20050;-60
2022/08/21 05:26:37;;;;;;;12.80;8.18;;;;;;;;;;4970297;28;20101;-60
2022/08/21 05:29:03;;;;;;;14.70;8.50;;;;;;;;;;4971732;28;20049;-61
2022/08/21 05:31:28;;;;;;;11.68;8.00;;;;;;;;;;4969960;28;20035;-60
2022/08/21 05:33:54;;;;;;;11.20;8.30;;;;;;;;;;4970840;28;20049;-60
2022/08/21 05:36:19;;;;;;;14.98;8.82;;;;;;;;;;4971231;28;20150;-61
2022/08/21 05:38:45;;;;;;;11.50;8.27;;;;;;;;;;4969209;28;20114;-62
2022/08/21 05:41:10;;;;;;;12.60;8.50;;;;;;;;;;4970690;28;20082;-60
2022/08/21 05:43:36;;;;;;;18.92;9.10;;;;;;;;;;4971009;28;20027;-60
2022/08/21 05:46:06;;;;;;;13.13;8.30;;;;;;;;;;4970449;28;20034;-62
2022/08/21 05:48:32;;;;;;;13.45;8.70;;;;;;;;;;4968063;28;20460;-62
2022/08/21 05:51:03;;;;;;;15.65;9.10;;;;;;;;;;4970812;28;20690;-63
2022/08/21 05:53:29;;;;;;;16.52;9.57;;;;;;;;;;4971387;28;20387;-63
2022/08/21 05:55:54;;;;;;;14.32;10.23;;;;;;;;;;4970997;28;20031;-62
2022/08/21 05:58:22;;;;;;;18.02;10.50;;;;;;;;;;4970309;28;20521;-62
2022/08/21 06:00:49;;;;;;;16.63;10.25;;;;;;;;;;4970322;28;20079;-62
2022/08/21 06:03:23;;;;;;;16.60;10.32;;;;;;;;;;4969814;28;20035;-63
2022/08/21 06:05:49;;;;;;;15.07;10.32;;;;;;;;;;4969152;28;20166;-62
2022/08/21 06:08:16;;;;;;;16.80;10.82;;;;;;;;;;4970679;28;20546;-61
2022/08/21 06:10:43;;;;;;;17.52;11.02;;;;;;;;;;4971105;28;20038;-65
2022/08/21 06:13:08;;;;;;;19.05;11.35;;;;;;;;;;4970408;28;20042;-62
2022/08/21 06:15:34;;;;;;;18.90;11.80;;;;;;;;;;4971261;28;20041;-62
2022/08/21 06:17:59;;;;;;;17.10;11.48;;;;;;;;;;4970767;28;20212;-63
2022/08/21 06:20:25;;;;;;;15.60;10.82;;;;;;;;;;4970900;28;20090;-64
2022/08/21 06:22:51;;;;;;;16.08;11.30;;;;;;;;;;4970084;28;20062;-62
2022/08/21 06:25:16;;;;;;;17.00;11.35;;;;;;;;;;4971672;28;20038;-62
2022/08/21 06:27:41;;;;;;;15.57;11.20;;;;;;;;;;4969917;28;20058;-65
2022/08/21 06:30:08;;;;;;;15.88;10.57;;;;;;;;;;4971624;28;20344;-62
2022/08/21 06:32:34;;;;;;;18.60;10.88;;;;;;;;;;4972974;28;20031;-62
2022/08/21 06:35:00;;;;;;;17.48;10.98;;;;;;;;;;4973576;28;20056;-62
2022/08/21 06:37:25;;;;;;;18.00;10.98;;;;;;;;;;4972907;28;20034;-62
2022/08/21 06:39:51;;;;;;;14.43;10.40;;;;;;;;;;4972503;28;20081;-62
2022/08/21 06:42:17;;;;;;;20.50;10.63;;;;;;;;;;4968922;28;20459;-62
2022/08/21 06:44:43;;;;;;;16.10;10.68;;;;;;;;;;4974586;28;20078;-65
2022/08/21 06:47:09;;;;;;;19.83;10.70;;;;;;;;;;4974010;28;20037;-62
2022/08/21 06:49:35;;;;;;;17.42;10.52;;;;;;;;;;4974712;28;20031;-62
2022/08/21 06:52:01;;;;;;;17.42;9.68;;;;;;;;;;4972433;28;20563;-61
2022/08/21 06:54:26;;;;;;;16.33;10.52;;;;;;;;;;4974506;28;20027;-62
2022/08/21 06:56:52;;;;;;;20.05;9.95;;;;;;;;;;4972514;28;20098;-62
2022/08/21 06:59:18;;;;;;;20.60;9.80;;;;;;;;;;4974599;28;20365;-62
2022/08/21 07:01:44;;;;;;;15.73;8.93;;;;;;;;;;4974474;28;20035;-65
2022/08/21 07:04:10;;;;;;;15.32;9.18;;;;;;;;;;4967016;28;20035;-63
2022/08/21 07:06:36;;;;;;;14.75;9.38;;;;;;;;;;4962826;28;20185;-62
2022/08/21 07:09:02;;;;;;;16.38;8.73;;;;;;;;;;4972211;28;20613;-64
2022/08/21 07:11:28;;;;;;;17.77;9.38;;;;;;;;;;4972954;28;20063;-61
2022/08/21 07:13:54;;;;;;;15.20;8.38;;;;;;;;;;4971976;28;20034;-62
2022/08/21 07:16:21;;;;;;;15.85;8.90;;;;;;;;;;4973793;28;20104;-62
2022/08/21 07:18:46;;;;;;;12.13;8.02;;;;;;;;;;4970639;28;20039;-64
2022/08/21 07:21:12;;;;;;;15.55;8.80;;;;;;;;;;4974413;28;20026;-62
2022/08/21 07:23:41;;;;;;;14.20;8.88;;;;;;;;;;4973853;28;20075;-61
2022/08/21 07:26:06;;;;;;;15.93;8.48;;;;;;;;;;4972438;28;20038;-61
2022/08/21 07:28:32;;;;;;;14.98;7.90;;;;;;;;;;4973957;28;20030;-62
2022/08/21 07:30:59;;;;;;;16.95;6.85;;;;;;;;;;4973523;28;20478;-62
2022/08/21 07:33:26;;;;;;;13.35;6.28;;;;;;;;;;4967889;28;20038;-62
2022/08/21 07:35:52;;;;;;;10.80;6.40;;;;;;;;;;4972216;28;20390;-63
2022/08/21 07:38:18;;;;;;;13.95;5.95;;;;;;;;;;4973309;28;20047;-62
2022/08/21 07:40:45;;;;;;;9.60;4.88;;;;;;;;;;4973774;28;20034;-67
2022/08/21 07:43:11;;;;;;;12.15;4.40;;;;;;;;;;4972809;28;20455;-62
2022/08/21 07:45:37;;;;;;;11.45;4.50;;;;;;;;;;4972677;28;20069;-62
2022/08/21 07:48:03;;;;;;;7.38;3.80;;;;;;;;;;4973971;28;20100;-62
2022/08/21 07:50:29;;;;;;;9.00;4.15;;;;;;;;;;4992675;28;20117;-62
2022/08/21 07:52:54;;;;;;;10.55;3.80;;;;;;;;;;4990041;28;20122;-62
2022/08/21 07:55:21;;;;;;;8.65;4.00;;;;;;;;;;4992828;28;20027;-62
2022/08/21 07:57:47;;;;;;;11.57;4.40;;;;;;;;;;4991678;28;20382;-65
2022/08/21 08:00:17;;;;;;;7.65;3.80;;;;;;;;;;4993034;28;20117;-61
2022/08/21 08:02:49;;;;;;;7.90;3.75;;;;;;;;;;4990465;28;20038;-63
2022/08/21 08:05:15;;;;;;;9.35;4.50;;;;;;;;;;4992315;28;20080;-63
2022/08/21 08:07:41;;;;;;;10.77;3.90;;;;;;;;;;4986117;28;20034;-63
2022/08/21 08:10:08;;;;;;;10.75;4.00;;;;;;;;;;4991593;28;20076;-63
2022/08/21 08:12:39;;;;;;;10.80;3.85;;;;;;;;;;4990002;28;20034;-63
2022/08/21 08:15:06;;;;;;;;;;;;;;;;;;4988671;28;20045;-62
2022/08/21 08:17:32;;;;;;;7.10;3.33;;;;;;;;;;4988123;28;20358;-63
2022/08/21 08:19:59;;;;;;;10.20;4.05;;;;;;;;;;4988276;28;20536;-62
2022/08/21 08:22:24;;;;;;;8.15;3.58;;;;;;;;;;4991066;28;20474;-61
2022/08/21 08:24:51;;;;;;;8.43;3.50;;;;;;;;;;4991544;28;20041;-64
2022/08/21 08:27:17;;;;;;;8.10;3.67;;;;;;;;;;4991046;28;20038;-62
2022/08/21 08:29:44;;;;;;;11.20;3.78;;;;;;;;;;4992368;28;20049;-61
2022/08/21 08:32:09;;;;;;;8.80;3.58;;;;;;;;;;4989206;28;20066;-62
2022/08/21 08:34:36;;;;;;;11.85;3.58;;;;;;;;;;4990906;28;20042;-62
2022/08/21 08:37:02;;;;;;;8.07;3.25;;;;;;;;;;4989840;28;20106;-61
2022/08/21 08:39:28;;;;;;;8.95;3.50;;;;;;;;;;4991208;28;20026;-61
2022/08/21 08:42:13;;;;;;;10.65;3.55;;;;;;;;;;4989632;28;20093;-60
2022/08/21 08:44:41;;;;;;;10.13;3.63;;;;;;;;;;4986019;28;20038;-61
2022/08/21 08:47:07;;;;;;;7.55;3.17;;;;;;;;;;4989773;28;20037;-61
2022/08/21 08:49:58;;;;;;;8.52;3.50;;;;;;;;;;4989816;28;20069;-60
2022/08/21 08:52:30;;;;;;;9.57;3.30;;;;;;;;;;4991163;28;20042;-60
2022/08/21 08:55:07;;;;;;;8.82;4.13;;;;;;;;;;4990350;28;20113;-60
2022/08/21 08:57:34;;;;;;;9.18;2.83;;;;;;;;;;4991374;28;20053;-59
2022/08/21 09:00:06;;;;;;;9.52;3.10;;;;;;;;;;4989342;28;20471;-61
2022/08/21 09:02:33;;;;;;;7.80;2.78;;;;;;;;;;4991382;28;20034;-60
2022/08/21 09:04:59;;;;;;;8.80;3.00;;;;;;;;;;4988972;28;20034;-61
2022/08/21 09:07:49;;;;;;;7.55;3.03;;;;;;;;;;4991096;28;20038;-60
2022/08/21 09:10:34;;;;;;;6.72;2.95;;;;;;;;;;4990093;28;20042;-60
2022/08/21 09:12:59;;;;;;;7.60;2.90;;;;;;;;;;4972107;28;20031;-60
2022/08/21 09:15:58;;;;;;;7.57;2.70;;;;;;;;;;4990477;28;20486;-59
2022/08/21 09:18:45;;;;;;;9.75;2.67;;;;;;;;;;4954552;28;20039;-59
2022/08/21 09:21:41;;;;;;;10.90;2.70;;;;;;;;;;4977898;28;20081;-60
2022/08/21 09:24:42;;;;;;;6.60;2.70;;;;;;;;;;4990680;28;20031;-61
2022/08/21 09:27:11;;;;;;;9.07;3.10;;;;;;;;;;4968503;28;20053;-61
2022/08/21 09:29:41;;;;;;;8.02;3.00;;;;;;;;;;4990814;28;20038;-61
2022/08/21 09:32:28;;;;;;;6.70;2.60;;;;;;;;;;4989857;28;20029;-60
2022/08/21 09:35:07;;;;;;;7.20;2.38;;;;;;;;;;4982714;28;20721;-62
2022/08/21 09:37:55;;;;;;;10.88;2.70;;;;;;;;;;4990969;28;20110;-61
2022/08/21 09:40:35;;;;;;;8.50;2.90;;;;;;;;;;4990628;28;20117;-61
2022/08/21 09:43:22;;;;;;;8.02;2.78;;;;;;;;;;4990511;28;20042;-62
2022/08/21 09:46:00;;;;;;;8.43;3.30;;;;;;;;;;4989516;28;20035;-61
2022/08/21 09:48:26;;;;;;;5.72;2.50;;;;;;;;;;4989403;28;20026;-61
2022/08/21 09:50:52;;;;;;;6.53;2.90;;;;;;;;;;4981611;28;20399;-62
2022/08/21 09:53:21;;;;;;;9.73;2.90;;;;;;;;;;4990585;28;20038;-60
2022/08/21 09:58:41;;;;;;;8.65;3.00;;;;;;;;;;4990393;28;20057;-61
2022/08/21 10:01:12;;;;;;;8.40;2.95;;;;;;;;;;4990498;28;20035;-62
2022/08/21 10:03:37;;;;;;;7.53;2.70;;;;;;;;;;4986715;28;20104;-61
2022/08/21 10:06:08;;;;;;;9.25;2.60;;;;;;;;;;4988789;28;20081;-61
2022/08/21 10:08:36;;;;;;;5.35;2.50;;;;;;;;;;4995023;28;20046;-60
2022/08/21 10:11:27;;;;;;;8.10;2.92;;;;;;;;;;4994087;28;20379;-61
2022/08/21 10:14:11;;;;;;;8.45;2.40;;;;;;;;;;4993954;28;20172;-61
2022/08/21 10:17:12;;;;;;;7.05;2.20;;;;;;;;;;4992131;28;20602;-60
2022/08/21 10:19:51;;;;;;;8.93;2.55;;;;;;;;;;4993354;28;20073;-60
2022/08/21 10:22:38;;;;;;;4.82;2.13;;;;;;;;;;4975391;28;20027;-60
2022/08/21 10:25:20;;;;;;;7.68;2.10;;;;;;;;;;4979394;28;20479;-60
2022/08/21 10:28:06;;;;;;;4.97;2.00;;;;;;;;;;4992722;28;20038;-60
2022/08/21 10:30:46;;;;;;;7.00;2.40;;;;;;;;;;4982948;28;20054;-60
2022/08/21 10:33:31;;;;;;;;;;;;;;;;;;4984410;28;20038;-60
2022/08/21 10:36:03;;;;;;;7.70;2.53;;;;;;;;;;4992717;28;20396;-62
2022/08/21 10:38:53;;;;;;;5.05;2.00;;;;;;;;;;4994641;28;20026;-60
2022/08/21 10:41:27;;;;;;;4.85;2.03;;;;;;;;;;4993815;28;20059;-60
2022/08/21 10:44:26;;;;;;;6.05;2.40;;;;;;;;;;4993601;28;20046;-60
2022/08/21 10:47:04;;;;;;;6.32;2.15;;;;;;;;;;4974670;28;20073;-60
2022/08/21 10:49:33;;;;;;;6.28;2.17;;;;;;;;;;4992497;28;20121;-60
2022/08/21 10:52:31;;;;;;;6.00;1.88;;;;;;;;;;4993462;28;20529;-63
2022/08/21 10:55:17;;;;;;;5.32;1.98;;;;;;;;;;4993797;28;20073;-62
2022/08/21 10:57:58;;;;;;;7.43;2.22;;;;;;;;;;4992511;28;20054;-61
2022/08/21 11:00:33;;;;;;;5.32;1.88;;;;;;;;;;4983061;28;20034;-61
2022/08/21 11:03:16;;;;;;;4.45;1.88;;;;;;;;;;4992646;28;20035;-62
2022/08/21 11:05:53;;;;;;;3.47;1.52;;;;;;;;;;4987699;28;20035;-62
2022/08/21 11:08:39;;;;;;;6.43;1.70;;;;;;;;;;4992743;28;20026;-62
2022/08/21 11:11:09;;;;;;;4.55;1.80;;;;;;;;;;4992946;28;20034;-61
2022/08/21 11:13:53;;;;;;;4.70;1.90;;;;;;;;;;4992327;28;20053;-61
2022/08/21 11:16:37;;;;;;;4.32;1.83;;;;;;;;;;4993912;28;20030;-61
2022/08/21 11:19:12;;;;;;;5.05;1.73;;;;;;;;;;4992355;28;20042;-62
2022/08/21 11:21:46;;;;;;;3.38;1.60;;;;;;;;;;4993526;28;20037;-61
2022/08/21 11:24:37;;;;;;;3.35;1.58;;;;;;;;;;4991552;28;20037;-61
2022/08/21 11:27:34;;;;;;;3.67;1.50;;;;;;;;;;4991851;28;20034;-63
2022/08/21 11:30:00;;;;;;;3.00;1.55;;;;;;;;;;4971093;28;20058;-63
2022/08/21 11:32:58;;;;;;;5.47;1.90;;;;;;;;;;4991503;28;20157;-61
2022/08/21 11:35:46;;;;;;;4.00;1.50;;;;;;;;;;4991150;28;20026;-61
2022/08/21 11:38:28;;;;;;;7.13;1.65;;;;;;;;;;4992504;28;20026;-61
2022/08/21 11:41:24;;;;;;;3.10;1.50;;;;;;;;;;4993366;28;20030;-61
2022/08/21 11:44:14;;;;;;;7.22;3.75;;;;;;;;;;4985087;28;20045;-61
2022/08/21 11:46:49;;;;;;;3.78;1.52;;;;;;;;;;4991492;28;20030;-61
2022/08/21 11:49:23;;;;;;;4.30;1.60;;;;;;;;;;4992601;28;20030;-62
2022/08/21 11:51:56;;;;;;;7.18;1.73;;;;;;;;;;4994070;28;20598;-61
2022/08/21 11:54:28;;;;;;;4.82;1.50;;;;;;;;;;4992335;28;20030;-61
2022/08/21 11:57:01;;;;;;;4.03;1.52;;;;;;;;;;4993816;28;20494;-61
2022/08/21 11:59:38;;;;;;;4.18;1.55;;;;;;;;;;4992195;28;20030;-61
2022/08/21 12:02:13;;;;;;;4.10;1.48;;;;;;;;;;4974608;28;20057;-61
2022/08/21 12:04:46;;;;;;;3.33;1.50;;;;;;;;;;4986356;28;20034;-62
2022/08/21 12:07:15;;;;;;;3.33;1.70;;;;;;;;;;4980450;28;20054;-61
2022/08/21 12:09:53;;;;;;;4.00;1.67;;;;;;;;;;4983717;28;20042;-61
2022/08/21 12:12:31;;;;;;;3.47;1.50;;;;;;;;;;4991561;28;20101;-61
2022/08/21 12:15:17;;;;;;;5.68;1.75;;;;;;;;;;4992447;28;20034;-61
2022/08/21 12:17:56;;;;;;;3.97;1.90;;;;;;;;;;4992298;28;20037;-61
2022/08/21 12:20:32;;;;;;;6.57;1.90;;;;;;;;;;4991475;28;20040;-61
2022/08/21 12:23:10;;;;;;;3.20;1.80;;;;;;;;;;4993162;28;20030;-61
2022/08/21 12:25:42;;;;;;;5.85;1.85;;;;;;;;;;4992547;28;20416;-61
2022/08/21 12:28:21;;;;;;;3.70;1.75;;;;;;;;;;4991092;28;20046;-61
2022/08/21 12:30:47;;;;;;;3.90;1.63;;;;;;;;;;4977954;28;20038;-61
2022/08/21 12:33:22;;;;;;;6.18;1.90;;;;;;;;;;4989061;28;20117;-61
2022/08/21 12:35:49;;;;;;;3.47;1.58;;;;;;;;;;4990817;28;20486;-61
2022/08/21 12:38:26;;;;;;;4.68;1.83;;;;;;;;;;4990789;28;20080;-61
2022/08/21 12:41:05;;;;;;;3.47;1.67;;;;;;;;;;4992402;28;20026;-61
2022/08/21 12:43:57;;;;;;;8.50;2.08;;;;;;;;;;4991536;28;20456;-60
2022/08/21 12:46:34;;;;;;;5.68;1.98;;;;;;;;;;4991254;28;20037;-60
2022/08/21 12:49:15;;;;;;;4.05;1.83;;;;;;;;;;4977879;28;20030;-60
2022/08/21 12:52:11;;;;;;;2.67;1.60;;;;;;;;;;4973680;28;20042;-61
2022/08/21 12:54:40;;;;;;;11.27;1.83;;;;;;;;;;4987375;28;20141;-61
2022/08/21 12:57:10;;;;;;;3.35;1.50;;;;;;;;;;4992120;28;20046;-63
2022/08/21 12:59:39;;;;;;;3.58;1.77;;;;;;;;;;4989688;28;20051;-60
2022/08/21 13:02:18;;;;;;;4.40;1.80;;;;;;;;;;4992282;28;20492;-62
2022/08/21 13:04:44;;;;;;;4.50;1.70;;;;;;;;;;4991989;28;20058;-63
2022/08/21 13:07:14;;;;;;;5.38;2.00;;;;;;;;;;4983779;28;20125;-62
2022/08/21 13:09:52;;;;;;;5.55;2.10;;;;;;;;;;4988789;28;20382;-63
2022/08/21 13:12:19;;;;;;;3.03;1.70;;;;;;;;;;4990540;28;20471;-62
2022/08/21 13:14:48;;;;;;;5.25;1.88;;;;;;;;;;4991471;28;20034;-62
2022/08/21 13:17:17;;;;;;;5.78;1.80;;;;;;;;;;4990752;28;20035;-62
2022/08/21 13:19:53;;;;;;;3.65;1.70;;;;;;;;;;4989700;28;20069;-62
2022/08/21 13:22:18;;;;;;;4.43;1.83;;;;;;;;;;4988982;28;20514;-63
2022/08/21 13:24:47;;;;;;;5.47;2.17;;;;;;;;;;4992687;28;20030;-62
2022/08/21 13:27:30;;;;;;;7.05;1.77;;;;;;;;;;4989624;28;20376;-62
2022/08/21 13:30:20;;;;;;;4.90;1.60;;;;;;;;;;4990616;28;20034;-62
2022/08/21 13:32:55;;;;;;;5.35;1.63;;;;;;;;;;4992143;28;20206;-62
2022/08/21 13:35:27;;;;;;;3.20;1.60;;;;;;;;;;4989989;28;20479;-62
2022/08/21 13:37:54;;;;;;;4.32;1.73;;;;;;;;;;4990005;28;20048;-63
2022/08/21 13:40:39;;;;;;;2.92;1.52;;;;;;;;;;4990341;28;20026;-62
2022/08/21 13:43:13;;;;;;;3.33;1.50;;;;;;;;;;4994694;28;20084;-65
2022/08/21 13:45:38;;;;;;;4.40;1.60;;;;;;;;;;4995739;28;20057;-62
2022/08/21 13:48:05;;;;;;;7.80;2.03;;;;;;;;;;4994318;28;20062;-63
2022/08/21 13:50:34;;;;;;;3.38;1.40;;;;;;;;;;4995366;28;20029;-61
2022/08/21 13:53:03;;;;;;;3.80;1.50;;;;;;;;;;4994995;28;20034;-62
2022/08/21 13:55:43;;;;;;;4.35;1.50;;;;;;;;;;4994878;28;20044;-62
2022/08/21 13:58:10;;;;;;;3.03;1.55;;;;;;;;;;4994291;28;20043;-64
2022/08/21 14:00:50;;;;;;;3.40;1.40;;;;;;;;;;4992826;28;20092;-61
2022/08/21 14:03:29;;;;;;;4.30;1.65;;;;;;;;;;4992534;28;20482;-61
2022/08/21 14:05:55;;;;;;;3.92;1.40;;;;;;;;;;4993231;28;20069;-60
2022/08/21 14:08:34;;;;;;;2.17;1.30;;;;;;;;;;4994801;28;20054;-62
2022/08/21 14:11:02;;;;;;;4.93;1.60;;;;;;;;;;4995136;28;20034;-66
2022/08/21 14:13:39;;;;;;;4.30;1.70;;;;;;;;;;4991188;28;20105;-63
2022/08/21 14:16:20;;;;;;;2.72;1.70;;;;;;;;;;4993699;28;20038;-63
2022/08/21 14:18:50;;;;;;;4.93;1.48;;;;;;;;;;4993091;28;20112;-62
2022/08/21 14:21:27;;;;;;;5.55;1.88;;;;;;;;;;4994404;28;20513;-62
2022/08/21 14:24:12;;;;;;;2.88;1.33;;;;;;;;;;4994019;28;20487;-62
2022/08/21 14:26:52;;;;;;;3.95;1.60;;;;;;;;;;4994811;28;20039;-61
2022/08/21 14:29:20;;;;;;;4.07;1.50;;;;;;;;;;4994036;28;20041;-61
2022/08/21 14:31:55;;;;;;;3.88;1.50;;;;;;;;;;4992532;28;20455;-60
2022/08/21 14:34:22;;;;;;;2.88;1.40;;;;;;;;;;4988288;28;20038;-62
2022/08/21 14:36:49;;;;;;;4.55;1.50;;;;;;;;;;4978952;28;20055;-62
2022/08/21 14:39:15;;;;;;;3.63;1.40;;;;;;;;;;4983056;28;20034;-62
2022/08/21 14:41:42;;;;;;;4.63;1.63;;;;;;;;;;4993726;28;20382;-62
2022/08/21 14:44:12;;;;;;;3.30;1.60;;;;;;;;;;4991720;28;20026;-63
2022/08/21 14:46:37;;;;;;;4.15;1.70;;;;;;;;;;4994883;28;20026;-60
2022/08/21 14:49:03;;;;;;;5.10;2.65;;;;;;;;;;4993929;28;20033;-61
2022/08/21 14:51:29;;;;;;;4.95;2.17;;;;;;;;;;4991491;28;20030;-62
2022/08/21 14:53:54;;;;;;;5.65;1.95;;;;;;;;;;4977407;28;20054;-60
2022/08/21 14:56:20;;;;;;;4.32;1.92;;;;;;;;;;4990035;28;20038;-60
2022/08/21 14:58:49;;;;;;;5.55;1.92;;;;;;;;;;4994920;28;20065;-59
2022/08/21 15:01:18;;;;;;;3.83;1.90;;;;;;;;;;4988974;28;20085;-61